Airfield :







YOU CAN JOIN US ON...

 
LOGIN :

Register | Disclaimer

   EN    FR    IT 

 









Legend :    VFR   Marginal VFR   IFR   Intensive IFR   Very Intensive IFR
Visi :
Ceiling :
>= 8 km
>= 3000ft
5 to 8 km
1000 to 3000 ft
1500m to 5 km
500 to 1000 ft
800 to 1500m
200 to 500 ft
< 800m
< 200 ft
Symbols :   Thunderstorms  Fog  Heavy snow  Heavy precipitations  Wind > 20 kt







- Airport Elevation : 244 ft
- IATA code : YQB


CYQB - Quebec - Jean Lesage Int.

CURRENT METAR :
  • 200800Z 00000KT 15SM SKC 13/12 A2998 RMK SLP154

EXPIRED METARs :
  • 200700Z VRB04KT 15SM SKC 15/12 A2997 RMK SLP149 DENSITY ALT 300FT
  • 200600Z 00000KT 15SM SKC 15/12 A2994 RMK SLP141 DENSITY ALT 300FT
  • 200500Z 07004KT 030V090 15SM SKC 16/13 A2993 RMK SLP138 DENSITY ALT 400FT

TAF TAF CYQB
Valid from the 20 at 06:00 until the 21 at 06:00 UTC


200541Z 2006/2106 VRB03KT P6SM SKC
PROB30 2009/2011 1SM BR SCT003
FM201600 24010KT P6SM SKC
BECMG 2102/2104 VRB03KT RMK NXT FCST BY 201200Z
ATIS : ENG : +1 418-871-6893 FRA : +1 418-871-6895
No reported NOTAMs for that airfield.



MET'MAP, your aeronautical weather chart ! - Copyright ORBIFLY December 2007 - Disclaimer

ORBIFLY MET'MAP TEAM :

Programming & Development : Alexandra Zaïnal
Concept & Development : Baudouin d'Aumeries
Co-Development & Prog : Marc-Olivier Méhu
Technical & hardware support : Manuel Goepfert

Contact : metmap@orbifly.com




SOURCES & CREDITS :

   NOAA